createdAt,value
2023-03-24T00:04:52.159Z,4.10
2023-03-24T00:09:54.458Z,3.75
2023-03-24T00:14:56.748Z,3.83
2023-03-24T00:20:00.442Z,4.82
2023-03-24T00:25:02.661Z,4.85
2023-03-24T00:30:07.247Z,4.13
2023-03-24T00:35:12.902Z,3.58
2023-03-24T00:40:17.309Z,4.38
2023-03-24T00:45:21.564Z,3.92
2023-03-24T00:50:25.224Z,3.80
2023-03-24T00:55:27.477Z,3.83
2023-03-24T01:00:29.656Z,3.75
2023-03-24T01:05:33.301Z,3.35
2023-03-24T01:10:37.892Z,3.00
2023-03-24T01:15:40.157Z,3.30
2023-03-24T01:20:46.188Z,3.20
2023-03-24T01:25:48.893Z,3.28
2023-03-24T01:30:51.764Z,3.25
2023-03-24T01:35:55.492Z,3.00
2023-03-24T01:40:57.728Z,3.38
2023-03-24T01:46:20.836Z,2.65
2023-03-24T01:51:28.133Z,3.00
2023-03-24T02:01:36.162Z,2.45
2023-03-24T02:06:43.080Z,2.80
2023-03-24T02:11:45.880Z,2.50
2023-03-24T02:17:11.934Z,2.28
2023-03-24T02:22:44.368Z,2.70
2023-03-24T02:28:08.842Z,2.70
2023-03-24T02:33:48.724Z,2.67
2023-03-24T02:39:32.213Z,2.72
2023-03-24T02:44:43.839Z,2.55
2023-03-24T02:49:54.573Z,2.30
2023-03-24T02:55:03.272Z,2.53
2023-03-24T03:00:13.804Z,3.00
2023-03-24T03:05:22.110Z,2.30
2023-03-24T03:10:30.030Z,2.47
2023-03-24T03:15:35.955Z,2.28
2023-03-24T03:20:44.315Z,1.95
2023-03-24T03:25:52.319Z,2.45
2023-03-24T03:30:57.875Z,2.20
2023-03-24T03:36:07.023Z,2.30
2023-03-24T03:41:11.112Z,2.25
2023-03-24T03:46:14.669Z,2.00
2023-03-24T03:51:16.974Z,2.40
2023-03-24T03:56:23.938Z,2.47
2023-03-24T04:01:29.593Z,2.30
2023-03-24T04:06:39.596Z,2.40
2023-03-24T04:11:59.941Z,2.00
2023-03-24T04:17:14.768Z,2.17
2023-03-24T04:22:27.158Z,2.00
2023-03-24T04:27:38.873Z,2.15
2023-03-24T04:32:47.655Z,1.70
2023-03-24T04:37:50.090Z,1.80
2023-03-24T04:42:56.863Z,1.95
2023-03-24T04:48:01.745Z,1.45
2023-03-24T04:53:05.529Z,1.38
2023-03-24T04:58:09.041Z,1.20
2023-03-24T05:03:11.260Z,1.40
2023-03-24T05:08:13.903Z,1.55
2023-03-24T05:13:17.368Z,1.02
2023-03-24T05:18:19.419Z,1.27
2023-03-24T05:23:21.559Z,1.52
2023-03-24T05:28:25.042Z,1.35
2023-03-24T05:33:27.413Z,0.90
2023-03-24T05:38:29.878Z,1.02
2023-03-24T05:43:33.452Z,1.38
2023-03-24T05:48:35.586Z,1.35
2023-03-24T05:53:37.904Z,1.52
2023-03-24T05:58:41.395Z,1.00
2023-03-24T06:03:43.480Z,1.40
2023-03-24T06:08:45.750Z,1.65
2023-03-24T06:13:49.373Z,1.48
2023-03-24T06:18:52.859Z,1.75
2023-03-24T06:23:55.055Z,1.35
2023-03-24T06:28:58.981Z,1.70
2023-03-24T06:34:01.833Z,1.23
2023-03-24T06:39:04.405Z,2.40
2023-03-24T06:44:07.965Z,1.80
2023-03-24T06:49:10.069Z,1.75
2023-03-24T06:54:12.217Z,1.70
2023-03-24T06:59:16.062Z,1.73
2023-03-24T07:04:18.315Z,1.63
2023-03-24T07:09:20.445Z,2.33
2023-03-24T07:14:24.020Z,2.15
2023-03-24T07:19:26.288Z,1.88
2023-03-24T07:24:30.581Z,1.65
2023-03-24T07:29:35.347Z,1.80
2023-03-24T07:34:37.571Z,2.08
2023-03-24T07:39:39.693Z,1.80
2023-03-24T07:44:43.255Z,1.77
2023-03-24T07:49:45.355Z,1.95
2023-03-24T07:54:47.480Z,1.95
2023-03-24T07:59:51.076Z,2.03
2023-03-24T08:04:53.340Z,2.30
2023-03-24T08:09:55.528Z,2.20
2023-03-24T08:14:59.260Z,1.70
2023-03-24T08:20:02.750Z,1.80
2023-03-24T08:25:09.412Z,2.30
2023-03-24T08:30:18.063Z,1.70
2023-03-24T08:35:23.436Z,1.95
2023-03-24T08:40:27.822Z,2.33
2023-03-24T08:45:32.424Z,1.75
2023-03-24T08:50:38.060Z,2.72
2023-03-24T08:55:40.654Z,2.15
2023-03-24T09:00:45.908Z,2.30
2023-03-24T09:05:48.729Z,1.75
2023-03-24T09:10:51.104Z,2.03
2023-03-24T09:15:59.167Z,2.28
2023-03-24T09:21:02.258Z,2.33
2023-03-24T09:26:05.108Z,2.53
2023-03-24T09:31:08.861Z,2.28
2023-03-24T09:36:11.704Z,2.78
2023-03-24T09:41:19.170Z,2.70
2023-03-24T09:46:31.720Z,2.38
2023-03-24T09:51:40.089Z,1.92
2023-03-24T09:56:46.039Z,2.10
2023-03-24T10:01:49.796Z,2.67
2023-03-24T10:07:01.031Z,2.67
2023-03-24T10:12:17.709Z,1.77
2023-03-24T10:17:29.198Z,2.17
2023-03-24T10:22:37.329Z,2.08
2023-03-24T10:27:45.250Z,2.25
2023-03-24T10:32:48.815Z,1.80
2023-03-24T10:37:52.869Z,2.20
2023-03-24T10:43:07.383Z,2.40
2023-03-24T10:48:15.369Z,2.00
2023-03-24T10:53:19.681Z,2.10
2023-03-24T10:58:29.761Z,2.20
2023-03-24T11:03:37.339Z,2.22
2023-03-24T11:08:40.659Z,1.40
2023-03-24T11:13:53.597Z,1.52
2023-03-24T11:19:00.479Z,2.17
2023-03-24T11:24:07.256Z,1.73
2023-03-24T11:29:16.062Z,1.45
2023-03-24T11:34:22.664Z,1.70
2023-03-24T11:39:27.364Z,1.90
2023-03-24T11:44:35.095Z,1.90
2023-03-24T11:49:43.284Z,1.90
2023-03-24T11:54:45.602Z,2.25
2023-03-24T11:59:52.574Z,1.90
2023-03-24T12:10:06.949Z,1.85
2023-03-24T12:15:30.091Z,1.95
2023-03-24T12:20:39.917Z,1.90
2023-03-24T12:26:08.944Z,1.70
2023-03-24T12:31:40.415Z,2.00
2023-03-24T12:36:50.442Z,2.28
2023-03-24T12:42:15.179Z,2.13
2023-03-24T12:47:35.861Z,1.58
2023-03-24T12:58:14.001Z,2.30
2023-03-24T13:03:22.231Z,1.83
2023-03-24T13:08:26.131Z,1.80
2023-03-24T13:13:32.123Z,1.77
2023-03-24T13:18:37.680Z,1.02
2023-03-24T13:23:46.783Z,1.50
2023-03-24T13:29:00.153Z,1.67
2023-03-24T13:34:04.237Z,1.40
2023-03-24T13:39:14.532Z,1.42
2023-03-24T13:44:19.807Z,2.10
2023-03-24T13:49:22.069Z,2.30
2023-03-24T13:54:27.751Z,1.80
2023-03-24T13:59:32.433Z,1.75
2023-03-24T14:04:45.406Z,1.70
2023-03-24T14:10:01.183Z,1.55
2023-03-24T14:15:14.871Z,1.50
2023-03-24T14:20:39.365Z,1.80
2023-03-24T14:25:54.500Z,1.40
2023-03-24T14:31:19.701Z,1.52
2023-03-24T14:36:29.319Z,1.38
2023-03-24T14:41:36.525Z,1.58
2023-03-24T14:51:52.627Z,1.25
2023-03-24T14:56:58.226Z,1.70
2023-03-24T15:02:11.809Z,1.05
2023-03-24T15:07:13.951Z,1.10
2023-03-24T15:12:17.620Z,1.35
2023-03-24T15:17:23.078Z,1.60
2023-03-24T15:22:25.157Z,1.50
2023-03-24T15:27:29.876Z,1.30
2023-03-24T15:32:32.471Z,1.88
2023-03-24T15:37:40.599Z,2.03
2023-03-24T15:42:45.730Z,1.73
2023-03-24T15:47:53.405Z,2.13
2023-03-24T15:53:00.701Z,1.80
2023-03-24T15:58:21.708Z,1.88
2023-03-24T16:03:25.364Z,1.60
2023-03-24T16:08:32.002Z,1.40
2023-03-24T16:13:35.700Z,1.77
2023-03-24T16:18:40.045Z,1.30
2023-03-24T16:23:42.371Z,1.45
2023-03-24T16:28:46.409Z,1.25
2023-03-24T16:33:48.749Z,2.00
2023-03-24T16:38:50.904Z,1.27
2023-03-24T16:43:54.933Z,1.30
2023-03-24T16:49:00.746Z,1.23
2023-03-24T16:54:03.141Z,0.90
2023-03-24T16:59:07.443Z,1.30
2023-03-24T17:04:13.709Z,1.30
2023-03-24T17:09:15.922Z,1.17
2023-03-24T17:14:19.838Z,1.35
2023-03-24T17:19:23.345Z,1.52
2023-03-24T17:24:25.600Z,1.50
2023-03-24T17:29:29.273Z,1.23
2023-03-24T17:34:31.567Z,1.70
2023-03-24T17:39:33.855Z,1.45
2023-03-24T17:44:37.609Z,1.70
2023-03-24T17:49:39.777Z,2.30
2023-03-24T17:54:42.775Z,1.52
2023-03-24T17:59:47.150Z,1.75
2023-03-24T18:04:49.401Z,1.10
2023-03-24T18:09:51.528Z,1.13
2023-03-24T18:14:55.112Z,1.30
2023-03-24T18:19:57.215Z,1.20
2023-03-24T18:24:59.442Z,1.10
2023-03-24T18:30:03.226Z,1.60
2023-03-24T18:35:06.935Z,1.30
2023-03-24T18:40:10.757Z,1.23
2023-03-24T18:45:14.317Z,1.70
2023-03-24T18:50:16.572Z,1.52
2023-03-24T18:55:18.753Z,1.40
2023-03-24T19:00:22.957Z,1.45
2023-03-24T19:05:25.128Z,1.33
2023-03-24T19:10:27.399Z,1.63
2023-03-24T19:15:31.117Z,1.88
2023-03-24T19:20:33.448Z,1.90
2023-03-24T19:25:35.598Z,1.90
2023-03-24T19:30:39.824Z,2.17
2023-03-24T19:35:41.972Z,1.90
2023-03-24T19:40:44.502Z,2.15
2023-03-24T19:45:51.397Z,1.83
2023-03-24T19:50:54.992Z,2.25
2023-03-24T19:55:58.589Z,1.80
2023-03-24T20:01:02.887Z,1.60
2023-03-24T20:06:06.317Z,1.60
2023-03-24T20:11:10.036Z,1.70
2023-03-24T20:16:13.772Z,1.45
2023-03-24T20:21:20.264Z,1.10
2023-03-24T20:26:24.922Z,1.70
2023-03-24T20:31:32.408Z,2.00
2023-03-24T20:36:40.021Z,1.50
2023-03-24T20:41:42.722Z,1.88
2023-03-24T20:46:53.908Z,1.80
2023-03-24T20:51:59.173Z,1.50
2023-03-24T20:57:15.356Z,1.70
2023-03-24T21:02:24.673Z,1.90
2023-03-24T21:07:30.860Z,2.03
2023-03-24T21:12:36.277Z,1.90
2023-03-24T21:18:05.857Z,1.75
2023-03-24T21:23:10.505Z,2.28
2023-03-24T21:28:15.125Z,2.10
2023-03-24T21:33:20.952Z,2.72
2023-03-24T21:38:23.457Z,2.35
2023-03-24T21:43:25.779Z,2.05
2023-03-24T21:48:29.804Z,2.38
2023-03-24T21:53:31.960Z,2.15
2023-03-24T21:58:34.700Z,2.22
2023-03-24T22:03:38.422Z,2.10
2023-03-24T22:08:40.803Z,2.20
2023-03-24T22:13:42.905Z,2.05
2023-03-24T22:18:46.516Z,1.67
2023-03-24T22:23:48.648Z,1.75
2023-03-24T22:28:50.764Z,2.72
2023-03-24T22:33:54.341Z,2.03
2023-03-24T22:38:56.427Z,2.42
2023-03-24T22:43:58.544Z,1.38
2023-03-24T22:49:02.284Z,2.63
2023-03-24T22:54:04.581Z,2.00
2023-03-24T22:59:06.707Z,2.35
2023-03-24T23:04:10.265Z,1.90
2023-03-24T23:09:12.674Z,1.80
2023-03-24T23:14:14.788Z,1.80
2023-03-24T23:19:18.276Z,2.03
2023-03-24T23:24:20.462Z,1.90
2023-03-24T23:29:22.723Z,2.15
2023-03-24T23:34:26.316Z,1.70
2023-03-24T23:39:28.637Z,2.00
2023-03-24T23:44:30.898Z,1.75
2023-03-24T23:49:34.526Z,1.67
2023-03-24T23:54:36.653Z,1.35
2023-03-24T23:59:39.827Z,1.73
